sensor_id;sensor_type;location;lat;lon;timestamp;temperature;humidity
21770;DHT22;11046;49.558;8.674;2023-05-07T00:00:50;15.40;84.00
21770;DHT22;11046;49.558;8.674;2023-05-07T00:03:51;15.40;84.10
21770;DHT22;11046;49.558;8.674;2023-05-07T00:06:52;15.40;84.10
21770;DHT22;11046;49.558;8.674;2023-05-07T00:09:52;15.40;84.00
21770;DHT22;11046;49.558;8.674;2023-05-07T00:12:53;15.40;84.30
21770;DHT22;11046;49.558;8.674;2023-05-07T00:15:53;15.40;84.30
21770;DHT22;11046;49.558;8.674;2023-05-07T00:18:54;15.30;84.40
21770;DHT22;11046;49.558;8.674;2023-05-07T00:21:54;15.40;84.40
21770;DHT22;11046;49.558;8.674;2023-05-07T00:24:56;15.40;84.40
21770;DHT22;11046;49.558;8.674;2023-05-07T00:27:56;15.40;84.30
21770;DHT22;11046;49.558;8.674;2023-05-07T00:31:02;15.40;84.30
21770;DHT22;11046;49.558;8.674;2023-05-07T00:34:03;15.30;84.50
21770;DHT22;11046;49.558;8.674;2023-05-07T00:37:04;15.30;84.50
21770;DHT22;11046;49.558;8.674;2023-05-07T00:40:05;15.30;84.60
21770;DHT22;11046;49.558;8.674;2023-05-07T00:43:08;15.30;84.60
21770;DHT22;11046;49.558;8.674;2023-05-07T00:46:09;15.30;84.70
21770;DHT22;11046;49.558;8.674;2023-05-07T00:49:11;15.20;84.80
21770;DHT22;11046;49.558;8.674;2023-05-07T00:52:16;15.20;84.80
21770;DHT22;11046;49.558;8.674;2023-05-07T00:55:17;15.30;84.90
21770;DHT22;11046;49.558;8.674;2023-05-07T00:58:18;15.20;84.70
21770;DHT22;11046;49.558;8.674;2023-05-07T01:01:20;15.20;85.00
21770;DHT22;11046;49.558;8.674;2023-05-07T01:04:20;15.10;85.20
21770;DHT22;11046;49.558;8.674;2023-05-07T01:07:21;15.10;85.30
21770;DHT22;11046;49.558;8.674;2023-05-07T01:10:22;15.00;85.60
21770;DHT22;11046;49.558;8.674;2023-05-07T01:13:24;14.90;85.90
21770;DHT22;11046;49.558;8.674;2023-05-07T01:16:25;14.90;86.20
21770;DHT22;11046;49.558;8.674;2023-05-07T01:19:26;14.90;86.50
21770;DHT22;11046;49.558;8.674;2023-05-07T01:22:33;14.70;86.70
21770;DHT22;11046;49.558;8.674;2023-05-07T01:25:34;14.70;87.30
21770;DHT22;11046;49.558;8.674;2023-05-07T01:28:36;14.70;87.50
21770;DHT22;11046;49.558;8.674;2023-05-07T01:31:37;14.60;87.80
21770;DHT22;11046;49.558;8.674;2023-05-07T01:34:38;14.50;88.30
21770;DHT22;11046;49.558;8.674;2023-05-07T01:37:40;14.40;88.60
21770;DHT22;11046;49.558;8.674;2023-05-07T01:40:41;14.40;89.00
21770;DHT22;11046;49.558;8.674;2023-05-07T01:43:43;14.30;89.30
21770;DHT22;11046;49.558;8.674;2023-05-07T01:46:44;14.40;89.40
21770;DHT22;11046;49.558;8.674;2023-05-07T01:49:45;14.40;89.40
21770;DHT22;11046;49.558;8.674;2023-05-07T01:52:47;14.40;89.60
21770;DHT22;11046;49.558;8.674;2023-05-07T01:55:47;14.40;90.00
21770;DHT22;11046;49.558;8.674;2023-05-07T01:58:49;14.30;90.00
21770;DHT22;11046;49.558;8.674;2023-05-07T02:01:51;14.30;90.10
21770;DHT22;11046;49.558;8.674;2023-05-07T02:04:52;14.30;90.10
21770;DHT22;11046;49.558;8.674;2023-05-07T02:07:53;14.40;90.00
21770;DHT22;11046;49.558;8.674;2023-05-07T02:10:54;14.40;89.90
21770;DHT22;11046;49.558;8.674;2023-05-07T02:13:55;14.50;89.90
21770;DHT22;11046;49.558;8.674;2023-05-07T02:16:55;14.50;89.80
21770;DHT22;11046;49.558;8.674;2023-05-07T02:19:57;14.50;89.80
21770;DHT22;11046;49.558;8.674;2023-05-07T02:22:57;14.50;89.70
21770;DHT22;11046;49.558;8.674;2023-05-07T02:26:01;14.50;89.70
21770;DHT22;11046;49.558;8.674;2023-05-07T02:29:01;14.50;89.70
21770;DHT22;11046;49.558;8.674;2023-05-07T02:32:02;14.50;89.80
21770;DHT22;11046;49.558;8.674;2023-05-07T02:35:03;14.40;89.70
21770;DHT22;11046;49.558;8.674;2023-05-07T02:38:04;14.50;89.80
21770;DHT22;11046;49.558;8.674;2023-05-07T02:41:05;14.50;89.70
21770;DHT22;11046;49.558;8.674;2023-05-07T02:44:06;14.50;89.50
21770;DHT22;11046;49.558;8.674;2023-05-07T02:47:07;14.60;89.20
21770;DHT22;11046;49.558;8.674;2023-05-07T02:50:10;14.60;89.10
21770;DHT22;11046;49.558;8.674;2023-05-07T02:53:11;14.60;89.10
21770;DHT22;11046;49.558;8.674;2023-05-07T02:56:12;14.70;89.00
21770;DHT22;11046;49.558;8.674;2023-05-07T02:59:12;14.70;88.80
21770;DHT22;11046;49.558;8.674;2023-05-07T03:02:15;14.70;89.00
21770;DHT22;11046;49.558;8.674;2023-05-07T03:05:16;14.50;89.40
21770;DHT22;11046;49.558;8.674;2023-05-07T03:08:16;14.50;89.40
21770;DHT22;11046;49.558;8.674;2023-05-07T03:11:17;14.50;89.60
21770;DHT22;11046;49.558;8.674;2023-05-07T03:14:17;14.40;89.90
21770;DHT22;11046;49.558;8.674;2023-05-07T03:17:18;14.30;90.00
21770;DHT22;11046;49.558;8.674;2023-05-07T03:20:19;14.30;90.10
21770;DHT22;11046;49.558;8.674;2023-05-07T03:23:19;14.20;90.30
21770;DHT22;11046;49.558;8.674;2023-05-07T03:26:20;14.10;90.40
21770;DHT22;11046;49.558;8.674;2023-05-07T03:29:21;14.00;90.50
21770;DHT22;11046;49.558;8.674;2023-05-07T03:32:22;14.00;90.50
21770;DHT22;11046;49.558;8.674;2023-05-07T03:35:22;13.80;90.70
21770;DHT22;11046;49.558;8.674;2023-05-07T03:38:23;13.60;91.00
21770;DHT22;11046;49.558;8.674;2023-05-07T03:41:24;13.50;91.50
21770;DHT22;11046;49.558;8.674;2023-05-07T03:44:26;13.40;91.70
21770;DHT22;11046;49.558;8.674;2023-05-07T03:47:27;13.50;91.70
21770;DHT22;11046;49.558;8.674;2023-05-07T03:50:28;13.50;91.80
21770;DHT22;11046;49.558;8.674;2023-05-07T03:53:29;13.40;91.90
21770;DHT22;11046;49.558;8.674;2023-05-07T03:56:30;13.50;92.00
21770;DHT22;11046;49.558;8.674;2023-05-07T03:59:33;13.50;91.90
21770;DHT22;11046;49.558;8.674;2023-05-07T04:02:33;13.60;92.00
21770;DHT22;11046;49.558;8.674;2023-05-07T04:05:34;13.60;92.00
21770;DHT22;11046;49.558;8.674;2023-05-07T04:08:37;13.60;92.00
21770;DHT22;11046;49.558;8.674;2023-05-07T04:11:39;13.60;92.00
21770;DHT22;11046;49.558;8.674;2023-05-07T04:14:42;13.70;92.00
21770;DHT22;11046;49.558;8.674;2023-05-07T04:17:43;13.70;91.90
21770;DHT22;11046;49.558;8.674;2023-05-07T04:20:44;13.70;92.00
21770;DHT22;11046;49.558;8.674;2023-05-07T04:23:48;13.80;92.00
21770;DHT22;11046;49.558;8.674;2023-05-07T04:26:49;13.80;91.90
21770;DHT22;11046;49.558;8.674;2023-05-07T04:29:55;13.90;91.80
21770;DHT22;11046;49.558;8.674;2023-05-07T04:32:59;13.90;91.80
21770;DHT22;11046;49.558;8.674;2023-05-07T04:36:03;14.00;91.80
21770;DHT22;11046;49.558;8.674;2023-05-07T04:39:06;14.00;91.80
21770;DHT22;11046;49.558;8.674;2023-05-07T04:42:07;14.00;91.70
21770;DHT22;11046;49.558;8.674;2023-05-07T04:45:10;14.10;91.70
21770;DHT22;11046;49.558;8.674;2023-05-07T04:48:13;14.20;91.60
21770;DHT22;11046;49.558;8.674;2023-05-07T04:51:16;14.30;91.50
21770;DHT22;11046;49.558;8.674;2023-05-07T04:54:17;14.40;91.40
21770;DHT22;11046;49.558;8.674;2023-05-07T04:57:18;14.40;91.40
21770;DHT22;11046;49.558;8.674;2023-05-07T05:00:19;14.50;91.30
21770;DHT22;11046;49.558;8.674;2023-05-07T05:03:21;14.50;91.30
21770;DHT22;11046;49.558;8.674;2023-05-07T05:06:22;14.60;91.20
21770;DHT22;11046;49.558;8.674;2023-05-07T05:09:24;14.60;91.20
21770;DHT22;11046;49.558;8.674;2023-05-07T05:12:25;14.60;91.20
21770;DHT22;11046;49.558;8.674;2023-05-07T05:15:25;14.70;91.20
21770;DHT22;11046;49.558;8.674;2023-05-07T05:18:26;14.80;91.10
21770;DHT22;11046;49.558;8.674;2023-05-07T05:21:27;14.80;91.10
21770;DHT22;11046;49.558;8.674;2023-05-07T05:24:33;14.90;91.00
21770;DHT22;11046;49.558;8.674;2023-05-07T05:27:35;15.00;90.90
21770;DHT22;11046;49.558;8.674;2023-05-07T05:30:36;15.00;90.90
21770;DHT22;11046;49.558;8.674;2023-05-07T05:33:37;15.10;90.70
21770;DHT22;11046;49.558;8.674;2023-05-07T05:36:39;15.20;90.70
21770;DHT22;11046;49.558;8.674;2023-05-07T05:39:40;15.30;90.70
21770;DHT22;11046;49.558;8.674;2023-05-07T05:42:44;15.30;90.60
21770;DHT22;11046;49.558;8.674;2023-05-07T05:45:45;15.40;90.60
21770;DHT22;11046;49.558;8.674;2023-05-07T05:48:46;15.40;90.60
21770;DHT22;11046;49.558;8.674;2023-05-07T05:51:47;15.50;90.50
21770;DHT22;11046;49.558;8.674;2023-05-07T05:54:48;15.60;90.40
21770;DHT22;11046;49.558;8.674;2023-05-07T05:57:50;15.60;90.40
21770;DHT22;11046;49.558;8.674;2023-05-07T06:00:52;15.60;90.30
21770;DHT22;11046;49.558;8.674;2023-05-07T06:03:55;15.70;90.30
21770;DHT22;11046;49.558;8.674;2023-05-07T06:06:56;15.70;90.20
21770;DHT22;11046;49.558;8.674;2023-05-07T06:09:59;15.90;90.20
21770;DHT22;11046;49.558;8.674;2023-05-07T06:12:59;16.00;90.10
21770;DHT22;11046;49.558;8.674;2023-05-07T06:16:00;16.00;90.00
21770;DHT22;11046;49.558;8.674;2023-05-07T06:19:00;16.20;90.00
21770;DHT22;11046;49.558;8.674;2023-05-07T06:22:01;16.40;89.80
21770;DHT22;11046;49.558;8.674;2023-05-07T06:25:04;16.50;89.60
21770;DHT22;11046;49.558;8.674;2023-05-07T06:28:05;16.60;89.50
21770;DHT22;11046;49.558;8.674;2023-05-07T06:31:19;16.80;89.20
21770;DHT22;11046;49.558;8.674;2023-05-07T06:34:33;16.80;89.00
21770;DHT22;11046;49.558;8.674;2023-05-07T06:37:35;17.00;88.90
21770;DHT22;11046;49.558;8.674;2023-05-07T06:40:39;17.10;88.80
21770;DHT22;11046;49.558;8.674;2023-05-07T06:43:40;17.30;88.40
21770;DHT22;11046;49.558;8.674;2023-05-07T06:47:06;17.30;87.80
21770;DHT22;11046;49.558;8.674;2023-05-07T06:50:08;17.30;87.50
21770;DHT22;11046;49.558;8.674;2023-05-07T06:53:10;17.30;87.70
21770;DHT22;11046;49.558;8.674;2023-05-07T06:56:11;17.50;87.80
21770;DHT22;11046;49.558;8.674;2023-05-07T06:59:13;17.60;87.30
21770;DHT22;11046;49.558;8.674;2023-05-07T07:02:15;17.70;87.20
21770;DHT22;11046;49.558;8.674;2023-05-07T07:05:16;17.80;86.70
21770;DHT22;11046;49.558;8.674;2023-05-07T07:08:16;18.00;86.40
21770;DHT22;11046;49.558;8.674;2023-05-07T07:11:18;18.10;86.20
21770;DHT22;11046;49.558;8.674;2023-05-07T07:14:19;18.20;86.10
21770;DHT22;11046;49.558;8.674;2023-05-07T07:17:24;18.40;85.80
21770;DHT22;11046;49.558;8.674;2023-05-07T07:20:25;18.60;85.30
21770;DHT22;11046;49.558;8.674;2023-05-07T07:23:26;18.80;85.10
21770;DHT22;11046;49.558;8.674;2023-05-07T07:26:27;19.10;84.40
21770;DHT22;11046;49.558;8.674;2023-05-07T07:29:28;19.20;83.60
21770;DHT22;11046;49.558;8.674;2023-05-07T07:32:29;19.20;83.50
21770;DHT22;11046;49.558;8.674;2023-05-07T07:35:31;19.20;83.40
21770;DHT22;11046;49.558;8.674;2023-05-07T07:38:32;19.30;83.10
21770;DHT22;11046;49.558;8.674;2023-05-07T07:41:33;19.40;83.30
21770;DHT22;11046;49.558;8.674;2023-05-07T07:44:34;19.60;83.00
21770;DHT22;11046;49.558;8.674;2023-05-07T07:47:40;19.80;82.70
21770;DHT22;11046;49.558;8.674;2023-05-07T07:50:41;20.10;82.60
21770;DHT22;11046;49.558;8.674;2023-05-07T07:53:42;20.30;81.60
21770;DHT22;11046;49.558;8.674;2023-05-07T07:56:43;20.30;81.10
21770;DHT22;11046;49.558;8.674;2023-05-07T07:59:45;20.20;80.80
21770;DHT22;11046;49.558;8.674;2023-05-07T08:02:48;20.20;80.40
21770;DHT22;11046;49.558;8.674;2023-05-07T08:05:56;20.20;80.40
21770;DHT22;11046;49.558;8.674;2023-05-07T08:08:57;20.30;79.90
21770;DHT22;11046;49.558;8.674;2023-05-07T08:11:58;20.20;79.40
21770;DHT22;11046;49.558;8.674;2023-05-07T08:14:58;20.10;79.70
21770;DHT22;11046;49.558;8.674;2023-05-07T08:17:59;20.10;79.50
21770;DHT22;11046;49.558;8.674;2023-05-07T08:21:01;20.10;79.30
21770;DHT22;11046;49.558;8.674;2023-05-07T08:24:04;20.20;79.10
21770;DHT22;11046;49.558;8.674;2023-05-07T08:27:05;20.30;79.20
21770;DHT22;11046;49.558;8.674;2023-05-07T08:30:07;20.40;79.10
21770;DHT22;11046;49.558;8.674;2023-05-07T08:33:08;20.40;78.60
21770;DHT22;11046;49.558;8.674;2023-05-07T08:36:09;20.30;78.20
21770;DHT22;11046;49.558;8.674;2023-05-07T08:39:10;20.30;78.40
21770;DHT22;11046;49.558;8.674;2023-05-07T08:42:11;20.50;78.10
21770;DHT22;11046;49.558;8.674;2023-05-07T08:45:13;20.60;77.90
21770;DHT22;11046;49.558;8.674;2023-05-07T08:48:17;20.90;77.80
21770;DHT22;11046;49.558;8.674;2023-05-07T08:51:24;21.00;77.30
21770;DHT22;11046;49.558;8.674;2023-05-07T08:54:26;21.00;76.80
21770;DHT22;11046;49.558;8.674;2023-05-07T08:57:28;21.00;77.00
21770;DHT22;11046;49.558;8.674;2023-05-07T09:00:29;21.10;77.00
21770;DHT22;11046;49.558;8.674;2023-05-07T09:03:31;21.00;76.50
21770;DHT22;11046;49.558;8.674;2023-05-07T09:06:33;21.00;76.30
21770;DHT22;11046;49.558;8.674;2023-05-07T09:09:35;21.10;76.30
21770;DHT22;11046;49.558;8.674;2023-05-07T09:12:39;21.20;76.90
21770;DHT22;11046;49.558;8.674;2023-05-07T09:15:42;21.40;77.40
21770;DHT22;11046;49.558;8.674;2023-05-07T09:18:44;21.50;77.00
21770;DHT22;11046;49.558;8.674;2023-05-07T09:21:48;21.60;76.80
21770;DHT22;11046;49.558;8.674;2023-05-07T09:24:50;21.60;77.10
21770;DHT22;11046;49.558;8.674;2023-05-07T09:27:53;21.60;77.50
21770;DHT22;11046;49.558;8.674;2023-05-07T09:30:53;21.70;77.30
21770;DHT22;11046;49.558;8.674;2023-05-07T09:33:55;22.00;76.90
21770;DHT22;11046;49.558;8.674;2023-05-07T09:37:03;22.20;77.10
21770;DHT22;11046;49.558;8.674;2023-05-07T09:40:05;22.30;76.90
21770;DHT22;11046;49.558;8.674;2023-05-07T09:43:11;22.40;77.40
21770;DHT22;11046;49.558;8.674;2023-05-07T09:46:15;22.60;76.80
21770;DHT22;11046;49.558;8.674;2023-05-07T09:49:23;22.70;76.30
21770;DHT22;11046;49.558;8.674;2023-05-07T09:52:27;22.80;75.40
21770;DHT22;11046;49.558;8.674;2023-05-07T09:55:34;22.70;74.80
21770;DHT22;11046;49.558;8.674;2023-05-07T09:58:37;22.40;74.60
21770;DHT22;11046;49.558;8.674;2023-05-07T10:01:40;22.60;74.30
21770;DHT22;11046;49.558;8.674;2023-05-07T10:04:41;22.90;74.10
21770;DHT22;11046;49.558;8.674;2023-05-07T10:07:44;23.00;74.10
21770;DHT22;11046;49.558;8.674;2023-05-07T10:10:45;23.10;73.70
21770;DHT22;11046;49.558;8.674;2023-05-07T10:13:52;23.10;74.00
21770;DHT22;11046;49.558;8.674;2023-05-07T10:16:53;23.40;73.70
21770;DHT22;11046;49.558;8.674;2023-05-07T10:19:55;23.60;72.70
21770;DHT22;11046;49.558;8.674;2023-05-07T10:22:58;24.20;72.50
21770;DHT22;11046;49.558;8.674;2023-05-07T10:26:07;24.80;71.30
21770;DHT22;11046;49.558;8.674;2023-05-07T10:35:31;26.10;66.20
21770;DHT22;11046;49.558;8.674;2023-05-07T10:38:35;25.90;64.80
21770;DHT22;11046;49.558;8.674;2023-05-07T10:41:36;25.90;63.30
21770;DHT22;11046;49.558;8.674;2023-05-07T10:44:37;26.10;62.70
21770;DHT22;11046;49.558;8.674;2023-05-07T10:51:20;26.50;61.90
21770;DHT22;11046;49.558;8.674;2023-05-07T10:54:23;27.00;60.30
21770;DHT22;11046;49.558;8.674;2023-05-07T10:57:38;27.30;60.00
21770;DHT22;11046;49.558;8.674;2023-05-07T11:00:58;27.60;58.80
21770;DHT22;11046;49.558;8.674;2023-05-07T11:04:15;27.70;57.70
21770;DHT22;11046;49.558;8.674;2023-05-07T11:07:34;28.00;56.60
21770;DHT22;11046;49.558;8.674;2023-05-07T11:10:55;27.80;56.60
21770;DHT22;11046;49.558;8.674;2023-05-07T11:20:56;28.00;56.10
21770;DHT22;11046;49.558;8.674;2023-05-07T11:24:17;27.70;55.70
21770;DHT22;11046;49.558;8.674;2023-05-07T11:27:33;27.00;56.10
21770;DHT22;11046;49.558;8.674;2023-05-07T11:30:35;27.10;55.90
21770;DHT22;11046;49.558;8.674;2023-05-07T11:33:37;27.00;55.40
21770;DHT22;11046;49.558;8.674;2023-05-07T11:36:42;27.20;55.20
21770;DHT22;11046;49.558;8.674;2023-05-07T11:39:46;27.70;54.70
21770;DHT22;11046;49.558;8.674;2023-05-07T11:42:47;28.20;53.80
21770;DHT22;11046;49.558;8.674;2023-05-07T11:45:48;28.30;54.00
21770;DHT22;11046;49.558;8.674;2023-05-07T11:48:49;28.70;52.50
21770;DHT22;11046;49.558;8.674;2023-05-07T11:51:50;28.70;52.10
21770;DHT22;11046;49.558;8.674;2023-05-07T11:54:58;28.50;51.90
21770;DHT22;11046;49.558;8.674;2023-05-07T11:58:00;28.50;52.30
21770;DHT22;11046;49.558;8.674;2023-05-07T12:01:00;28.80;52.60
21770;DHT22;11046;49.558;8.674;2023-05-07T12:04:03;28.70;52.00
21770;DHT22;11046;49.558;8.674;2023-05-07T12:07:03;28.60;51.80
21770;DHT22;11046;49.558;8.674;2023-05-07T12:10:05;28.40;51.10
21770;DHT22;11046;49.558;8.674;2023-05-07T12:13:17;28.20;50.80
21770;DHT22;11046;49.558;8.674;2023-05-07T12:16:19;27.90;51.00
21770;DHT22;11046;49.558;8.674;2023-05-07T12:19:20;27.90;50.90
21770;DHT22;11046;49.558;8.674;2023-05-07T12:22:21;27.70;50.30
21770;DHT22;11046;49.558;8.674;2023-05-07T12:25:22;27.20;50.60
21770;DHT22;11046;49.558;8.674;2023-05-07T12:28:23;26.90;50.80
21770;DHT22;11046;49.558;8.674;2023-05-07T12:31:26;27.10;51.40
21770;DHT22;11046;49.558;8.674;2023-05-07T12:34:26;26.90;51.30
21770;DHT22;11046;49.558;8.674;2023-05-07T12:37:28;27.00;51.20
21770;DHT22;11046;49.558;8.674;2023-05-07T12:40:43;26.80;50.90
21770;DHT22;11046;49.558;8.674;2023-05-07T12:43:45;26.50;50.60
21770;DHT22;11046;49.558;8.674;2023-05-07T12:46:46;26.30;51.10
21770;DHT22;11046;49.558;8.674;2023-05-07T12:49:47;26.40;51.30
21770;DHT22;11046;49.558;8.674;2023-05-07T12:52:48;26.70;51.60
21770;DHT22;11046;49.558;8.674;2023-05-07T12:55:56;26.90;51.80
21770;DHT22;11046;49.558;8.674;2023-05-07T12:58:59;26.90;51.00
21770;DHT22;11046;49.558;8.674;2023-05-07T13:02:00;26.80;50.60
21770;DHT22;11046;49.558;8.674;2023-05-07T13:05:00;26.90;50.70
21770;DHT22;11046;49.558;8.674;2023-05-07T13:08:01;27.20;50.50
21770;DHT22;11046;49.558;8.674;2023-05-07T13:11:02;27.30;50.10
21770;DHT22;11046;49.558;8.674;2023-05-07T13:14:04;27.20;49.80
21770;DHT22;11046;49.558;8.674;2023-05-07T13:17:04;27.00;49.60
21770;DHT22;11046;49.558;8.674;2023-05-07T13:20:05;27.00;50.60
21770;DHT22;11046;49.558;8.674;2023-05-07T13:23:06;27.00;49.70
21770;DHT22;11046;49.558;8.674;2023-05-07T13:26:07;27.20;49.20
21770;DHT22;11046;49.558;8.674;2023-05-07T13:29:07;27.20;48.90
21770;DHT22;11046;49.558;8.674;2023-05-07T13:32:08;27.10;48.90
21770;DHT22;11046;49.558;8.674;2023-05-07T13:35:08;27.10;49.10
21770;DHT22;11046;49.558;8.674;2023-05-07T13:38:09;27.10;48.80
21770;DHT22;11046;49.558;8.674;2023-05-07T13:41:09;26.90;48.90
21770;DHT22;11046;49.558;8.674;2023-05-07T13:44:10;26.80;48.90
21770;DHT22;11046;49.558;8.674;2023-05-07T13:47:11;26.60;49.30
21770;DHT22;11046;49.558;8.674;2023-05-07T13:50:12;26.50;49.50
21770;DHT22;11046;49.558;8.674;2023-05-07T13:53:14;26.40;49.80
21770;DHT22;11046;49.558;8.674;2023-05-07T13:56:18;26.30;49.70
21770;DHT22;11046;49.558;8.674;2023-05-07T13:59:18;26.20;49.70
21770;DHT22;11046;49.558;8.674;2023-05-07T14:02:19;26.00;49.90
21770;DHT22;11046;49.558;8.674;2023-05-07T14:05:20;25.90;50.40
21770;DHT22;11046;49.558;8.674;2023-05-07T14:08:23;25.80;50.80
21770;DHT22;11046;49.558;8.674;2023-05-07T14:11:24;25.50;51.40
21770;DHT22;11046;49.558;8.674;2023-05-07T14:14:24;25.30;51.90
21770;DHT22;11046;49.558;8.674;2023-05-07T14:17:25;25.10;52.00
21770;DHT22;11046;49.558;8.674;2023-05-07T14:20:27;25.00;52.20
21770;DHT22;11046;49.558;8.674;2023-05-07T14:23:27;24.80;52.50
21770;DHT22;11046;49.558;8.674;2023-05-07T14:26:28;24.70;53.30
21770;DHT22;11046;49.558;8.674;2023-05-07T14:29:29;24.50;54.20
21770;DHT22;11046;49.558;8.674;2023-05-07T14:32:30;24.40;54.30
21770;DHT22;11046;49.558;8.674;2023-05-07T14:35:30;24.30;54.50
21770;DHT22;11046;49.558;8.674;2023-05-07T14:38:31;23.90;55.10
21770;DHT22;11046;49.558;8.674;2023-05-07T14:41:33;23.60;56.30
21770;DHT22;11046;49.558;8.674;2023-05-07T14:44:35;23.10;57.70
21770;DHT22;11046;49.558;8.674;2023-05-07T14:47:36;22.50;59.70
21770;DHT22;11046;49.558;8.674;2023-05-07T14:50:36;22.00;63.00
21770;DHT22;11046;49.558;8.674;2023-05-07T14:53:37;21.40;65.30
21770;DHT22;11046;49.558;8.674;2023-05-07T14:56:37;20.60;67.60
21770;DHT22;11046;49.558;8.674;2023-05-07T14:59:38;20.00;70.40
21770;DHT22;11046;49.558;8.674;2023-05-07T15:02:39;19.60;72.80
21770;DHT22;11046;49.558;8.674;2023-05-07T15:05:40;19.30;76.30
21770;DHT22;11046;49.558;8.674;2023-05-07T15:08:41;18.80;78.40
21770;DHT22;11046;49.558;8.674;2023-05-07T15:11:42;18.20;82.50
21770;DHT22;11046;49.558;8.674;2023-05-07T15:14:42;17.70;84.50
21770;DHT22;11046;49.558;8.674;2023-05-07T15:17:43;17.40;85.60
21770;DHT22;11046;49.558;8.674;2023-05-07T15:20:44;17.30;85.80
21770;DHT22;11046;49.558;8.674;2023-05-07T15:23:44;17.20;86.00
21770;DHT22;11046;49.558;8.674;2023-05-07T15:26:45;17.20;86.90
21770;DHT22;11046;49.558;8.674;2023-05-07T15:29:45;17.10;87.60
21770;DHT22;11046;49.558;8.674;2023-05-07T15:32:46;17.10;88.40
21770;DHT22;11046;49.558;8.674;2023-05-07T15:35:47;17.00;88.60
21770;DHT22;11046;49.558;8.674;2023-05-07T15:38:48;16.90;89.20
21770;DHT22;11046;49.558;8.674;2023-05-07T15:41:49;16.90;89.90
21770;DHT22;11046;49.558;8.674;2023-05-07T15:44:49;16.90;90.20
21770;DHT22;11046;49.558;8.674;2023-05-07T15:47:50;16.80;90.70
21770;DHT22;11046;49.558;8.674;2023-05-07T15:50:50;16.70;90.90
21770;DHT22;11046;49.558;8.674;2023-05-07T15:53:51;16.70;90.90
21770;DHT22;11046;49.558;8.674;2023-05-07T15:56:52;16.70;91.10
21770;DHT22;11046;49.558;8.674;2023-05-07T15:59:53;16.70;91.30
21770;DHT22;11046;49.558;8.674;2023-05-07T16:02:53;16.60;91.50
21770;DHT22;11046;49.558;8.674;2023-05-07T16:05:55;16.60;92.00
21770;DHT22;11046;49.558;8.674;2023-05-07T16:09:00;16.60;91.70
21770;DHT22;11046;49.558;8.674;2023-05-07T16:12:01;16.60;91.80
21770;DHT22;11046;49.558;8.674;2023-05-07T16:15:01;16.50;92.10
21770;DHT22;11046;49.558;8.674;2023-05-07T16:18:03;16.50;92.30
21770;DHT22;11046;49.558;8.674;2023-05-07T16:21:04;16.50;92.50
21770;DHT22;11046;49.558;8.674;2023-05-07T16:24:04;16.60;92.50
21770;DHT22;11046;49.558;8.674;2023-05-07T16:27:05;16.60;92.70
21770;DHT22;11046;49.558;8.674;2023-05-07T16:30:06;16.50;92.70
21770;DHT22;11046;49.558;8.674;2023-05-07T16:33:07;16.50;93.00
21770;DHT22;11046;49.558;8.674;2023-05-07T16:36:08;16.40;93.30
21770;DHT22;11046;49.558;8.674;2023-05-07T16:39:09;16.20;93.70
21770;DHT22;11046;49.558;8.674;2023-05-07T16:42:09;16.10;94.00
21770;DHT22;11046;49.558;8.674;2023-05-07T16:45:10;16.20;94.10
21770;DHT22;11046;49.558;8.674;2023-05-07T16:48:11;16.00;94.40
21770;DHT22;11046;49.558;8.674;2023-05-07T16:51:11;15.90;94.70
21770;DHT22;11046;49.558;8.674;2023-05-07T16:54:12;15.80;95.10
21770;DHT22;11046;49.558;8.674;2023-05-07T16:57:13;15.70;95.40
21770;DHT22;11046;49.558;8.674;2023-05-07T17:00:13;15.60;95.80
21770;DHT22;11046;49.558;8.674;2023-05-07T17:03:14;15.40;96.30
21770;DHT22;11046;49.558;8.674;2023-05-07T17:06:15;15.40;96.50
21770;DHT22;11046;49.558;8.674;2023-05-07T17:09:15;15.40;96.60
21770;DHT22;11046;49.558;8.674;2023-05-07T17:12:16;15.40;96.80
21770;DHT22;11046;49.558;8.674;2023-05-07T17:15:17;15.40;97.00
21770;DHT22;11046;49.558;8.674;2023-05-07T17:18:17;15.30;97.20
21770;DHT22;11046;49.558;8.674;2023-05-07T17:21:18;15.30;97.40
21770;DHT22;11046;49.558;8.674;2023-05-07T17:24:18;15.30;97.60
21770;DHT22;11046;49.558;8.674;2023-05-07T17:27:19;15.40;97.50
21770;DHT22;11046;49.558;8.674;2023-05-07T17:30:20;15.40;97.50
21770;DHT22;11046;49.558;8.674;2023-05-07T17:33:20;15.40;98.00
21770;DHT22;11046;49.558;8.674;2023-05-07T17:36:21;15.40;97.80
21770;DHT22;11046;49.558;8.674;2023-05-07T17:39:21;15.30;98.00
21770;DHT22;11046;49.558;8.674;2023-05-07T17:42:22;15.30;98.20
21770;DHT22;11046;49.558;8.674;2023-05-07T17:45:23;15.30;98.20
21770;DHT22;11046;49.558;8.674;2023-05-07T17:48:24;15.30;98.30
21770;DHT22;11046;49.558;8.674;2023-05-07T17:51:24;15.20;98.70
21770;DHT22;11046;49.558;8.674;2023-05-07T17:54:25;15.10;98.90
21770;DHT22;11046;49.558;8.674;2023-05-07T17:57:26;15.00;99.30
21770;DHT22;11046;49.558;8.674;2023-05-07T18:00:27;14.90;99.50
21770;DHT22;11046;49.558;8.674;2023-05-07T18:03:27;14.90;99.90
21770;DHT22;11046;49.558;8.674;2023-05-07T18:06:29;14.90;99.60
21770;DHT22;11046;49.558;8.674;2023-05-07T18:09:29;14.90;99.80
21770;DHT22;11046;49.558;8.674;2023-05-07T18:12:30;14.90;99.80
21770;DHT22;11046;49.558;8.674;2023-05-07T18:15:31;14.90;99.90
21770;DHT22;11046;49.558;8.674;2023-05-07T18:18:31;14.90;99.90
21770;DHT22;11046;49.558;8.674;2023-05-07T18:21:34;14.80;99.90
21770;DHT22;11046;49.558;8.674;2023-05-07T18:24:35;14.90;99.90
21770;DHT22;11046;49.558;8.674;2023-05-07T18:27:35;14.90;99.90
21770;DHT22;11046;49.558;8.674;2023-05-07T18:30:36;15.10;99.90
21770;DHT22;11046;49.558;8.674;2023-05-07T18:33:37;15.10;99.90
21770;DHT22;11046;49.558;8.674;2023-05-07T18:36:37;15.10;99.90
21770;DHT22;11046;49.558;8.674;2023-05-07T18:39:38;15.00;99.90
21770;DHT22;11046;49.558;8.674;2023-05-07T18:42:38;14.80;99.90
21770;DHT22;11046;49.558;8.674;2023-05-07T18:45:39;14.80;99.90
21770;DHT22;11046;49.558;8.674;2023-05-07T18:48:39;14.90;99.90
21770;DHT22;11046;49.558;8.674;2023-05-07T18:51:40;14.90;99.90
21770;DHT22;11046;49.558;8.674;2023-05-07T18:54:41;14.90;99.90
21770;DHT22;11046;49.558;8.674;2023-05-07T18:57:42;14.90;99.90
21770;DHT22;11046;49.558;8.674;2023-05-07T19:00:47;14.90;99.90
21770;DHT22;11046;49.558;8.674;2023-05-07T19:03:48;15.00;99.90
21770;DHT22;11046;49.558;8.674;2023-05-07T19:06:49;15.00;99.90
21770;DHT22;11046;49.558;8.674;2023-05-07T19:09:49;15.00;99.90
21770;DHT22;11046;49.558;8.674;2023-05-07T19:12:50;15.00;99.90
21770;DHT22;11046;49.558;8.674;2023-05-07T19:15:54;15.00;99.90
21770;DHT22;11046;49.558;8.674;2023-05-07T19:18:55;15.00;99.90
21770;DHT22;11046;49.558;8.674;2023-05-07T19:21:55;15.10;99.90
21770;DHT22;11046;49.558;8.674;2023-05-07T19:24:56;15.10;99.90